sensor_id;sensor_type;location;lat;lon;timestamp;P1;durP1;ratioP1;P2;durP2;ratioP2
9248;SDS011;4660;41.768;26.198;2022-11-11T00:00:34;45.47;;;31.97;;
9248;SDS011;4660;41.768;26.198;2022-11-11T00:03:00;47.20;;;33.10;;
9248;SDS011;4660;41.768;26.198;2022-11-11T00:05:26;58.60;;;36.00;;
9248;SDS011;4660;41.768;26.198;2022-11-11T00:07:52;56.57;;;34.97;;
9248;SDS011;4660;41.768;26.198;2022-11-11T00:10:24;51.73;;;35.30;;
9248;SDS011;4660;41.768;26.198;2022-11-11T00:12:51;41.17;;;32.07;;
9248;SDS011;4660;41.768;26.198;2022-11-11T00:15:17;46.20;;;31.97;;
9248;SDS011;4660;41.768;26.198;2022-11-11T00:17:42;48.17;;;32.10;;
9248;SDS011;4660;41.768;26.198;2022-11-11T00:20:26;45.80;;;33.20;;
9248;SDS011;4660;41.768;26.198;2022-11-11T00:23:44;46.63;;;31.10;;
9248;SDS011;4660;41.768;26.198;2022-11-11T00:26:20;41.93;;;31.17;;
9248;SDS011;4660;41.768;26.198;2022-11-11T00:28:46;40.07;;;29.67;;
9248;SDS011;4660;41.768;26.198;2022-11-11T00:31:12;44.27;;;31.43;;
9248;SDS011;4660;41.768;26.198;2022-11-11T00:33:38;39.97;;;30.10;;
9248;SDS011;4660;41.768;26.198;2022-11-11T00:36:04;41.93;;;30.03;;
9248;SDS011;4660;41.768;26.198;2022-11-11T00:38:31;43.80;;;32.47;;
9248;SDS011;4660;41.768;26.198;2022-11-11T00:41:17;51.07;;;34.13;;
9248;SDS011;4660;41.768;26.198;2022-11-11T00:43:44;44.47;;;31.73;;
9248;SDS011;4660;41.768;26.198;2022-11-11T00:46:11;45.67;;;29.77;;
9248;SDS011;4660;41.768;26.198;2022-11-11T00:48:57;43.93;;;29.60;;
9248;SDS011;4660;41.768;26.198;2022-11-11T00:51:41;39.10;;;27.47;;
9248;SDS011;4660;41.768;26.198;2022-11-11T00:54:07;39.30;;;29.60;;
9248;SDS011;4660;41.768;26.198;2022-11-11T00:56:33;43.23;;;31.00;;
9248;SDS011;4660;41.768;26.198;2022-11-11T00:59:00;40.20;;;29.87;;
9248;SDS011;4660;41.768;26.198;2022-11-11T01:01:30;37.73;;;28.27;;
9248;SDS011;4660;41.768;26.198;2022-11-11T01:03:57;33.40;;;26.17;;
9248;SDS011;4660;41.768;26.198;2022-11-11T01:06:23;33.43;;;27.90;;
9248;SDS011;4660;41.768;26.198;2022-11-11T01:08:49;37.30;;;27.90;;
9248;SDS011;4660;41.768;26.198;2022-11-11T01:11:16;44.77;;;31.33;;
9248;SDS011;4660;41.768;26.198;2022-11-11T01:13:44;41.20;;;30.40;;
9248;SDS011;4660;41.768;26.198;2022-11-11T01:16:11;43.10;;;29.67;;
9248;SDS011;4660;41.768;26.198;2022-11-11T01:18:39;39.13;;;30.20;;
9248;SDS011;4660;41.768;26.198;2022-11-11T01:21:06;36.23;;;28.40;;
9248;SDS011;4660;41.768;26.198;2022-11-11T01:23:37;37.43;;;30.37;;
9248;SDS011;4660;41.768;26.198;2022-11-11T01:26:05;37.90;;;28.70;;
9248;SDS011;4660;41.768;26.198;2022-11-11T01:28:37;43.80;;;29.87;;
9248;SDS011;4660;41.768;26.198;2022-11-11T01:31:07;42.00;;;30.83;;
9248;SDS011;4660;41.768;26.198;2022-11-11T01:33:34;48.97;;;33.37;;
9248;SDS011;4660;41.768;26.198;2022-11-11T01:36:05;43.67;;;32.17;;
9248;SDS011;4660;41.768;26.198;2022-11-11T01:38:32;42.70;;;32.17;;
9248;SDS011;4660;41.768;26.198;2022-11-11T01:40:58;41.83;;;32.53;;
9248;SDS011;4660;41.768;26.198;2022-11-11T01:43:23;42.20;;;31.47;;
9248;SDS011;4660;41.768;26.198;2022-11-11T01:45:59;43.93;;;32.60;;
9248;SDS011;4660;41.768;26.198;2022-11-11T01:54:05;42.23;;;33.13;;
9248;SDS011;4660;41.768;26.198;2022-11-11T01:56:34;45.20;;;33.87;;
9248;SDS011;4660;41.768;26.198;2022-11-11T01:59:02;42.90;;;31.27;;
9248;SDS011;4660;41.768;26.198;2022-11-11T02:01:33;46.87;;;32.37;;
9248;SDS011;4660;41.768;26.198;2022-11-11T02:04:00;50.37;;;34.13;;
9248;SDS011;4660;41.768;26.198;2022-11-11T02:06:47;46.00;;;31.43;;
9248;SDS011;4660;41.768;26.198;2022-11-11T02:09:17;39.53;;;30.50;;
9248;SDS011;4660;41.768;26.198;2022-11-11T02:11:44;40.90;;;30.53;;
9248;SDS011;4660;41.768;26.198;2022-11-11T02:14:28;38.63;;;29.20;;
9248;SDS011;4660;41.768;26.198;2022-11-11T02:17:00;42.73;;;28.53;;
9248;SDS011;4660;41.768;26.198;2022-11-11T02:22:17;43.40;;;30.23;;
9248;SDS011;4660;41.768;26.198;2022-11-11T02:24:47;39.13;;;28.57;;
9248;SDS011;4660;41.768;26.198;2022-11-11T02:27:16;43.33;;;30.33;;
9248;SDS011;4660;41.768;26.198;2022-11-11T02:29:43;44.63;;;30.47;;
9248;SDS011;4660;41.768;26.198;2022-11-11T02:32:11;47.23;;;31.03;;
9248;SDS011;4660;41.768;26.198;2022-11-11T02:34:37;43.33;;;30.30;;
9248;SDS011;4660;41.768;26.198;2022-11-11T02:37:03;45.73;;;31.77;;
9248;SDS011;4660;41.768;26.198;2022-11-11T02:39:33;46.60;;;31.87;;
9248;SDS011;4660;41.768;26.198;2022-11-11T02:42:01;41.23;;;30.97;;
9248;SDS011;4660;41.768;26.198;2022-11-11T02:44:35;39.23;;;28.90;;
9248;SDS011;4660;41.768;26.198;2022-11-11T02:47:04;43.53;;;31.20;;
9248;SDS011;4660;41.768;26.198;2022-11-11T02:49:30;39.47;;;29.77;;
9248;SDS011;4660;41.768;26.198;2022-11-11T02:51:55;39.77;;;31.13;;
9248;SDS011;4660;41.768;26.198;2022-11-11T02:54:21;44.27;;;31.10;;
9248;SDS011;4660;41.768;26.198;2022-11-11T02:56:47;50.93;;;31.30;;
9248;SDS011;4660;41.768;26.198;2022-11-11T02:59:30;45.73;;;31.97;;
9248;SDS011;4660;41.768;26.198;2022-11-11T03:01:56;49.07;;;32.37;;
9248;SDS011;4660;41.768;26.198;2022-11-11T03:04:22;47.80;;;31.80;;
9248;SDS011;4660;41.768;26.198;2022-11-11T03:06:48;50.60;;;33.47;;
9248;SDS011;4660;41.768;26.198;2022-11-11T03:09:13;47.73;;;33.30;;
9248;SDS011;4660;41.768;26.198;2022-11-11T03:11:39;54.30;;;36.33;;
9248;SDS011;4660;41.768;26.198;2022-11-11T03:14:05;50.80;;;34.40;;
9248;SDS011;4660;41.768;26.198;2022-11-11T03:16:30;62.03;;;35.10;;
9248;SDS011;4660;41.768;26.198;2022-11-11T03:19:14;50.67;;;33.47;;
9248;SDS011;4660;41.768;26.198;2022-11-11T03:21:40;53.93;;;36.00;;
9248;SDS011;4660;41.768;26.198;2022-11-11T03:24:06;53.30;;;36.40;;
9248;SDS011;4660;41.768;26.198;2022-11-11T03:26:31;64.50;;;39.60;;
9248;SDS011;4660;41.768;26.198;2022-11-11T03:28:57;67.17;;;40.80;;
9248;SDS011;4660;41.768;26.198;2022-11-11T03:31:22;72.60;;;40.77;;
9248;SDS011;4660;41.768;26.198;2022-11-11T03:33:48;63.53;;;40.47;;
9248;SDS011;4660;41.768;26.198;2022-11-11T03:36:14;60.60;;;38.03;;
9248;SDS011;4660;41.768;26.198;2022-11-11T03:38:39;62.57;;;37.03;;
9248;SDS011;4660;41.768;26.198;2022-11-11T03:41:05;57.20;;;37.90;;
9248;SDS011;4660;41.768;26.198;2022-11-11T03:43:31;53.47;;;36.30;;
9248;SDS011;4660;41.768;26.198;2022-11-11T03:45:59;50.90;;;34.70;;
9248;SDS011;4660;41.768;26.198;2022-11-11T03:48:27;50.63;;;36.10;;
9248;SDS011;4660;41.768;26.198;2022-11-11T03:50:54;54.23;;;34.77;;
9248;SDS011;4660;41.768;26.198;2022-11-11T03:53:20;52.20;;;35.10;;
9248;SDS011;4660;41.768;26.198;2022-11-11T03:55:47;54.07;;;36.37;;
9248;SDS011;4660;41.768;26.198;2022-11-11T03:58:13;57.30;;;39.23;;
9248;SDS011;4660;41.768;26.198;2022-11-11T04:00:39;54.80;;;37.57;;
9248;SDS011;4660;41.768;26.198;2022-11-11T04:03:05;50.37;;;38.77;;
9248;SDS011;4660;41.768;26.198;2022-11-11T04:05:53;52.00;;;36.97;;
9248;SDS011;4660;41.768;26.198;2022-11-11T04:08:38;48.37;;;35.50;;
9248;SDS011;4660;41.768;26.198;2022-11-11T04:11:36;50.23;;;35.13;;
9248;SDS011;4660;41.768;26.198;2022-11-11T04:14:04;50.23;;;36.60;;
9248;SDS011;4660;41.768;26.198;2022-11-11T04:16:52;51.60;;;35.93;;
9248;SDS011;4660;41.768;26.198;2022-11-11T04:19:17;51.50;;;37.00;;
9248;SDS011;4660;41.768;26.198;2022-11-11T04:22:02;53.30;;;38.87;;
9248;SDS011;4660;41.768;26.198;2022-11-11T04:24:27;50.53;;;35.83;;
9248;SDS011;4660;41.768;26.198;2022-11-11T04:27:13;48.23;;;36.70;;
9248;SDS011;4660;41.768;26.198;2022-11-11T04:29:40;58.87;;;38.90;;
9248;SDS011;4660;41.768;26.198;2022-11-11T04:32:07;52.17;;;37.70;;
9248;SDS011;4660;41.768;26.198;2022-11-11T04:34:54;48.60;;;37.80;;
9248;SDS011;4660;41.768;26.198;2022-11-11T04:37:21;45.93;;;36.27;;
9248;SDS011;4660;41.768;26.198;2022-11-11T04:39:48;51.13;;;40.30;;
9248;SDS011;4660;41.768;26.198;2022-11-11T04:42:32;56.43;;;37.97;;
9248;SDS011;4660;41.768;26.198;2022-11-11T04:44:59;44.40;;;36.70;;
9248;SDS011;4660;41.768;26.198;2022-11-11T04:47:54;49.50;;;36.63;;
9248;SDS011;4660;41.768;26.198;2022-11-11T04:50:21;47.40;;;37.30;;
9248;SDS011;4660;41.768;26.198;2022-11-11T04:52:48;46.70;;;34.80;;
9248;SDS011;4660;41.768;26.198;2022-11-11T04:55:14;54.37;;;36.57;;
9248;SDS011;4660;41.768;26.198;2022-11-11T04:57:58;49.57;;;36.23;;
9248;SDS011;4660;41.768;26.198;2022-11-11T05:00:23;52.80;;;36.07;;
9248;SDS011;4660;41.768;26.198;2022-11-11T05:02:52;44.07;;;34.60;;
9248;SDS011;4660;41.768;26.198;2022-11-11T05:05:37;44.33;;;34.77;;
9248;SDS011;4660;41.768;26.198;2022-11-11T05:08:21;46.83;;;38.50;;
9248;SDS011;4660;41.768;26.198;2022-11-11T05:11:05;41.73;;;34.23;;
9248;SDS011;4660;41.768;26.198;2022-11-11T05:13:31;42.70;;;33.43;;
9248;SDS011;4660;41.768;26.198;2022-11-11T05:16:18;53.23;;;35.20;;
9248;SDS011;4660;41.768;26.198;2022-11-11T05:19:05;53.00;;;36.20;;
9248;SDS011;4660;41.768;26.198;2022-11-11T05:21:51;53.27;;;35.17;;
9248;SDS011;4660;41.768;26.198;2022-11-11T05:24:19;47.37;;;34.43;;
9248;SDS011;4660;41.768;26.198;2022-11-11T05:27:03;46.57;;;34.23;;
9248;SDS011;4660;41.768;26.198;2022-11-11T05:29:29;53.07;;;38.00;;
9248;SDS011;4660;41.768;26.198;2022-11-11T05:31:54;53.43;;;39.33;;
9248;SDS011;4660;41.768;26.198;2022-11-11T05:34:20;55.10;;;40.43;;
9248;SDS011;4660;41.768;26.198;2022-11-11T05:36:45;55.77;;;41.73;;
9248;SDS011;4660;41.768;26.198;2022-11-11T05:39:11;62.73;;;43.90;;
9248;SDS011;4660;41.768;26.198;2022-11-11T05:41:36;58.70;;;43.53;;
9248;SDS011;4660;41.768;26.198;2022-11-11T05:44:03;59.57;;;42.30;;
9248;SDS011;4660;41.768;26.198;2022-11-11T05:46:29;59.07;;;41.83;;
9248;SDS011;4660;41.768;26.198;2022-11-11T05:48:55;55.80;;;40.97;;
9248;SDS011;4660;41.768;26.198;2022-11-11T05:51:39;60.53;;;40.97;;
9248;SDS011;4660;41.768;26.198;2022-11-11T05:54:04;62.40;;;43.47;;
9248;SDS011;4660;41.768;26.198;2022-11-11T05:56:30;57.93;;;44.37;;
9248;SDS011;4660;41.768;26.198;2022-11-11T05:58:56;61.57;;;43.90;;
9248;SDS011;4660;41.768;26.198;2022-11-11T06:01:21;61.07;;;43.33;;
9248;SDS011;4660;41.768;26.198;2022-11-11T06:03:48;63.10;;;44.50;;
9248;SDS011;4660;41.768;26.198;2022-11-11T06:06:13;62.87;;;44.53;;
9248;SDS011;4660;41.768;26.198;2022-11-11T06:08:39;61.03;;;43.53;;
9248;SDS011;4660;41.768;26.198;2022-11-11T06:11:05;65.27;;;46.90;;
9248;SDS011;4660;41.768;26.198;2022-11-11T06:13:30;64.27;;;47.10;;
9248;SDS011;4660;41.768;26.198;2022-11-11T06:15:58;67.23;;;49.43;;
9248;SDS011;4660;41.768;26.198;2022-11-11T06:18:24;60.10;;;45.07;;
9248;SDS011;4660;41.768;26.198;2022-11-11T06:20:53;61.90;;;46.50;;
9248;SDS011;4660;41.768;26.198;2022-11-11T06:23:20;62.70;;;46.90;;
9248;SDS011;4660;41.768;26.198;2022-11-11T06:25:47;62.53;;;44.70;;
9248;SDS011;4660;41.768;26.198;2022-11-11T06:28:31;56.10;;;42.73;;
9248;SDS011;4660;41.768;26.198;2022-11-11T06:30:57;64.73;;;43.77;;
9248;SDS011;4660;41.768;26.198;2022-11-11T06:33:22;65.03;;;45.90;;
9248;SDS011;4660;41.768;26.198;2022-11-11T06:35:48;58.03;;;45.43;;
9248;SDS011;4660;41.768;26.198;2022-11-11T06:38:15;56.37;;;44.00;;
9248;SDS011;4660;41.768;26.198;2022-11-11T06:40:41;53.60;;;43.97;;
9248;SDS011;4660;41.768;26.198;2022-11-11T06:43:08;57.93;;;44.47;;
9248;SDS011;4660;41.768;26.198;2022-11-11T06:45:34;59.80;;;43.63;;
9248;SDS011;4660;41.768;26.198;2022-11-11T06:48:00;57.20;;;42.83;;
9248;SDS011;4660;41.768;26.198;2022-11-11T06:50:32;56.43;;;41.93;;
9248;SDS011;4660;41.768;26.198;2022-11-11T06:53:04;58.73;;;43.03;;
9248;SDS011;4660;41.768;26.198;2022-11-11T06:55:37;57.63;;;43.53;;
9248;SDS011;4660;41.768;26.198;2022-11-11T06:58:11;59.43;;;43.07;;
9248;SDS011;4660;41.768;26.198;2022-11-11T07:00:41;57.53;;;44.57;;
9248;SDS011;4660;41.768;26.198;2022-11-11T07:03:13;56.37;;;43.40;;
9248;SDS011;4660;41.768;26.198;2022-11-11T07:05:40;56.10;;;43.80;;
9248;SDS011;4660;41.768;26.198;2022-11-11T07:08:07;57.53;;;44.00;;
9248;SDS011;4660;41.768;26.198;2022-11-11T07:10:38;59.07;;;41.53;;
9248;SDS011;4660;41.768;26.198;2022-11-11T07:13:07;58.57;;;43.77;;
9248;SDS011;4660;41.768;26.198;2022-11-11T07:15:33;61.70;;;45.23;;
9248;SDS011;4660;41.768;26.198;2022-11-11T07:18:00;58.23;;;45.23;;
9248;SDS011;4660;41.768;26.198;2022-11-11T07:20:26;62.83;;;45.77;;
9248;SDS011;4660;41.768;26.198;2022-11-11T07:22:52;62.10;;;47.63;;
9248;SDS011;4660;41.768;26.198;2022-11-11T07:25:17;72.67;;;48.07;;
9248;SDS011;4660;41.768;26.198;2022-11-11T07:27:43;63.13;;;45.83;;
9248;SDS011;4660;41.768;26.198;2022-11-11T07:30:09;57.20;;;44.97;;
9248;SDS011;4660;41.768;26.198;2022-11-11T07:32:35;62.63;;;46.47;;
9248;SDS011;4660;41.768;26.198;2022-11-11T07:35:02;64.13;;;45.90;;
9248;SDS011;4660;41.768;26.198;2022-11-11T07:37:31;59.00;;;44.57;;
9248;SDS011;4660;41.768;26.198;2022-11-11T07:39:57;59.07;;;45.00;;
9248;SDS011;4660;41.768;26.198;2022-11-11T07:42:22;65.83;;;45.40;;
9248;SDS011;4660;41.768;26.198;2022-11-11T07:44:48;59.77;;;44.07;;
9248;SDS011;4660;41.768;26.198;2022-11-11T07:47:13;59.07;;;45.17;;
9248;SDS011;4660;41.768;26.198;2022-11-11T07:49:39;57.57;;;44.50;;
9248;SDS011;4660;41.768;26.198;2022-11-11T07:52:04;60.53;;;42.63;;
9248;SDS011;4660;41.768;26.198;2022-11-11T07:54:30;58.90;;;41.90;;
9248;SDS011;4660;41.768;26.198;2022-11-11T07:56:56;54.53;;;41.70;;
9248;SDS011;4660;41.768;26.198;2022-11-11T07:59:21;50.43;;;40.20;;
9248;SDS011;4660;41.768;26.198;2022-11-11T08:01:48;54.53;;;40.57;;
9248;SDS011;4660;41.768;26.198;2022-11-11T08:04:13;50.43;;;40.40;;
9248;SDS011;4660;41.768;26.198;2022-11-11T08:06:39;50.07;;;39.80;;
9248;SDS011;4660;41.768;26.198;2022-11-11T08:09:04;51.73;;;42.40;;
9248;SDS011;4660;41.768;26.198;2022-11-11T08:11:30;49.73;;;38.83;;
9248;SDS011;4660;41.768;26.198;2022-11-11T08:14:14;50.97;;;39.00;;
9248;SDS011;4660;41.768;26.198;2022-11-11T08:16:40;48.43;;;37.10;;
9248;SDS011;4660;41.768;26.198;2022-11-11T08:19:05;46.97;;;37.60;;
9248;SDS011;4660;41.768;26.198;2022-11-11T08:21:31;47.30;;;36.53;;
9248;SDS011;4660;41.768;26.198;2022-11-11T08:23:56;47.17;;;35.80;;
9248;SDS011;4660;41.768;26.198;2022-11-11T08:26:22;50.43;;;36.93;;
9248;SDS011;4660;41.768;26.198;2022-11-11T08:28:48;46.43;;;37.40;;
9248;SDS011;4660;41.768;26.198;2022-11-11T08:31:15;52.03;;;36.67;;
9248;SDS011;4660;41.768;26.198;2022-11-11T08:33:41;46.50;;;35.23;;
9248;SDS011;4660;41.768;26.198;2022-11-11T08:36:06;48.70;;;36.80;;
9248;SDS011;4660;41.768;26.198;2022-11-11T08:38:32;48.20;;;36.47;;
9248;SDS011;4660;41.768;26.198;2022-11-11T08:41:01;49.37;;;36.40;;
9248;SDS011;4660;41.768;26.198;2022-11-11T08:43:29;46.97;;;34.40;;
9248;SDS011;4660;41.768;26.198;2022-11-11T08:46:00;41.70;;;34.13;;
9248;SDS011;4660;41.768;26.198;2022-11-11T08:48:28;46.27;;;34.03;;
9248;SDS011;4660;41.768;26.198;2022-11-11T08:50:57;46.10;;;35.90;;
9248;SDS011;4660;41.768;26.198;2022-11-11T08:53:23;42.87;;;34.67;;
9248;SDS011;4660;41.768;26.198;2022-11-11T08:55:48;43.33;;;35.77;;
9248;SDS011;4660;41.768;26.198;2022-11-11T08:58:14;42.97;;;34.60;;
9248;SDS011;4660;41.768;26.198;2022-11-11T09:00:40;46.37;;;34.90;;
9248;SDS011;4660;41.768;26.198;2022-11-11T09:03:08;43.00;;;31.23;;
9248;SDS011;4660;41.768;26.198;2022-11-11T09:05:36;42.87;;;34.80;;
9248;SDS011;4660;41.768;26.198;2022-11-11T09:08:03;47.27;;;33.17;;
9248;SDS011;4660;41.768;26.198;2022-11-11T09:10:31;39.30;;;31.93;;
9248;SDS011;4660;41.768;26.198;2022-11-11T09:12:57;39.47;;;31.93;;
9248;SDS011;4660;41.768;26.198;2022-11-11T09:15:24;39.33;;;31.37;;
9248;SDS011;4660;41.768;26.198;2022-11-11T09:17:50;35.93;;;30.00;;
9248;SDS011;4660;41.768;26.198;2022-11-11T09:20:17;36.77;;;29.67;;
9248;SDS011;4660;41.768;26.198;2022-11-11T09:22:46;35.97;;;28.90;;
9248;SDS011;4660;41.768;26.198;2022-11-11T09:25:13;37.03;;;27.67;;
9248;SDS011;4660;41.768;26.198;2022-11-11T09:27:39;32.93;;;23.33;;
9248;SDS011;4660;41.768;26.198;2022-11-11T09:30:06;28.17;;;22.77;;
9248;SDS011;4660;41.768;26.198;2022-11-11T09:32:32;26.13;;;19.77;;
9248;SDS011;4660;41.768;26.198;2022-11-11T09:34:58;23.67;;;18.70;;
9248;SDS011;4660;41.768;26.198;2022-11-11T09:37:24;23.13;;;18.00;;
9248;SDS011;4660;41.768;26.198;2022-11-11T09:39:50;28.47;;;18.40;;
9248;SDS011;4660;41.768;26.198;2022-11-11T09:47:38;22.63;;;17.50;;
9248;SDS011;4660;41.768;26.198;2022-11-11T09:50:21;22.80;;;16.97;;
9248;SDS011;4660;41.768;26.198;2022-11-11T09:52:59;20.23;;;16.88;;
9248;SDS011;4660;41.768;26.198;2022-11-11T09:58:11;20.53;;;17.00;;
9248;SDS011;4660;41.768;26.198;2022-11-11T10:00:41;24.57;;;17.17;;
9248;SDS011;4660;41.768;26.198;2022-11-11T10:03:20;22.37;;;18.13;;
9248;SDS011;4660;41.768;26.198;2022-11-11T10:05:49;26.50;;;18.33;;
9248;SDS011;4660;41.768;26.198;2022-11-11T10:10:51;21.10;;;18.30;;
9248;SDS011;4660;41.768;26.198;2022-11-11T10:15:57;21.93;;;19.17;;
9248;SDS011;4660;41.768;26.198;2022-11-11T10:21:43;22.98;;;18.65;;
9248;SDS011;4660;41.768;26.198;2022-11-11T10:24:16;21.88;;;17.80;;
9248;SDS011;4660;41.768;26.198;2022-11-11T10:26:50;22.10;;;17.55;;
9248;SDS011;4660;41.768;26.198;2022-11-11T10:29:19;20.47;;;16.57;;
9248;SDS011;4660;41.768;26.198;2022-11-11T10:32:04;20.73;;;17.98;;
9248;SDS011;4660;41.768;26.198;2022-11-11T10:34:42;21.90;;;17.73;;
9248;SDS011;4660;41.768;26.198;2022-11-11T10:37:14;23.10;;;18.13;;
9248;SDS011;4660;41.768;26.198;2022-11-11T10:42:30;23.65;;;17.60;;
9248;SDS011;4660;41.768;26.198;2022-11-11T10:44:59;22.77;;;17.27;;
9248;SDS011;4660;41.768;26.198;2022-11-11T10:52:39;23.97;;;18.40;;
9248;SDS011;4660;41.768;26.198;2022-11-11T10:55:13;34.47;;;21.47;;
9248;SDS011;4660;41.768;26.198;2022-11-11T10:57:51;25.40;;;20.87;;
9248;SDS011;4660;41.768;26.198;2022-11-11T11:00:28;21.73;;;19.23;;
9248;SDS011;4660;41.768;26.198;2022-11-11T11:06:16;26.33;;;19.43;;
9248;SDS011;4660;41.768;26.198;2022-11-11T11:08:48;27.30;;;18.53;;
9248;SDS011;4660;41.768;26.198;2022-11-11T11:11:20;22.67;;;18.77;;
9248;SDS011;4660;41.768;26.198;2022-11-11T11:13:54;21.13;;;18.37;;
9248;SDS011;4660;41.768;26.198;2022-11-11T11:16:27;21.90;;;16.87;;
9248;SDS011;4660;41.768;26.198;2022-11-11T11:21:54;24.27;;;19.50;;
9248;SDS011;4660;41.768;26.198;2022-11-11T11:26:59;29.83;;;20.43;;
9248;SDS011;4660;41.768;26.198;2022-11-11T11:29:29;28.60;;;19.53;;
9248;SDS011;4660;41.768;26.198;2022-11-11T11:34:45;27.97;;;19.13;;
9248;SDS011;4660;41.768;26.198;2022-11-11T11:37:16;24.57;;;19.60;;
9248;SDS011;4660;41.768;26.198;2022-11-11T11:39:43;26.07;;;20.47;;
9248;SDS011;4660;41.768;26.198;2022-11-11T11:42:25;29.93;;;20.67;;
9248;SDS011;4660;41.768;26.198;2022-11-11T11:44:53;23.47;;;20.07;;
9248;SDS011;4660;41.768;26.198;2022-11-11T11:58:51;22.83;;;19.30;;
9248;SDS011;4660;41.768;26.198;2022-11-11T12:01:32;21.50;;;17.10;;
9248;SDS011;4660;41.768;26.198;2022-11-11T12:14:57;11.10;;;7.50;;
9248;SDS011;4660;41.768;26.198;2022-11-11T12:26:35;7.20;;;6.37;;
9248;SDS011;4660;41.768;26.198;2022-11-11T12:29:23;7.63;;;6.00;;
9248;SDS011;4660;41.768;26.198;2022-11-11T12:40:25;9.20;;;6.80;;
9248;SDS011;4660;41.768;26.198;2022-11-11T12:43:20;9.00;;;6.57;;
9248;SDS011;4660;41.768;26.198;2022-11-11T13:00:26;3.43;;;3.03;;
9248;SDS011;4660;41.768;26.198;2022-11-11T13:02:57;3.77;;;2.83;;
9248;SDS011;4660;41.768;26.198;2022-11-11T13:05:58;10.33;;;7.83;;
9248;SDS011;4660;41.768;26.198;2022-11-11T13:08:43;14.43;;;10.20;;
9248;SDS011;4660;41.768;26.198;2022-11-11T13:16:59;10.23;;;4.30;;
9248;SDS011;4660;41.768;26.198;2022-11-11T13:22:29;4.63;;;3.80;;
9248;SDS011;4660;41.768;26.198;2022-11-11T13:24:57;8.27;;;5.60;;
9248;SDS011;4660;41.768;26.198;2022-11-11T13:27:43;5.30;;;4.80;;
9248;SDS011;4660;41.768;26.198;2022-11-11T13:32:43;10.17;;;3.90;;
9248;SDS011;4660;41.768;26.198;2022-11-11T13:35:21;5.77;;;3.63;;
9248;SDS011;4660;41.768;26.198;2022-11-11T13:37:53;3.90;;;3.47;;
9248;SDS011;4660;41.768;26.198;2022-11-11T13:40:26;4.63;;;3.83;;
9248;SDS011;4660;41.768;26.198;2022-11-11T13:42:54;6.77;;;3.40;;
9248;SDS011;4660;41.768;26.198;2022-11-11T13:45:27;4.97;;;2.77;;
9248;SDS011;4660;41.768;26.198;2022-11-11T13:48:00;6.50;;;3.80;;
9248;SDS011;4660;41.768;26.198;2022-11-11T13:50:32;9.13;;;3.60;;
9248;SDS011;4660;41.768;26.198;2022-11-11T13:53:06;4.40;;;3.97;;
9248;SDS011;4660;41.768;26.198;2022-11-11T13:55:40;8.80;;;4.50;;
9248;SDS011;4660;41.768;26.198;2022-11-11T14:01:13;12.33;;;6.30;;
9248;SDS011;4660;41.768;26.198;2022-11-11T14:13:49;23.10;;;17.27;;
9248;SDS011;4660;41.768;26.198;2022-11-11T14:21:56;9.63;;;7.97;;
9248;SDS011;4660;41.768;26.198;2022-11-11T14:24:39;11.20;;;8.47;;
9248;SDS011;4660;41.768;26.198;2022-11-11T14:29:36;9.70;;;8.10;;
9248;SDS011;4660;41.768;26.198;2022-11-11T14:35:15;12.17;;;10.00;;
9248;SDS011;4660;41.768;26.198;2022-11-11T14:37:58;19.07;;;14.03;;
9248;SDS011;4660;41.768;26.198;2022-11-11T14:40:36;27.20;;;17.57;;
9248;SDS011;4660;41.768;26.198;2022-11-11T14:43:32;30.80;;;21.13;;
9248;SDS011;4660;41.768;26.198;2022-11-11T14:45:59;35.20;;;23.80;;
9248;SDS011;4660;41.768;26.198;2022-11-11T14:54:24;36.63;;;27.87;;
9248;SDS011;4660;41.768;26.198;2022-11-11T14:57:03;40.63;;;29.67;;
9248;SDS011;4660;41.768;26.198;2022-11-11T14:59:32;48.53;;;32.17;;
9248;SDS011;4660;41.768;26.198;2022-11-11T15:01:59;51.33;;;38.03;;
9248;SDS011;4660;41.768;26.198;2022-11-11T15:04:26;47.03;;;35.57;;
9248;SDS011;4660;41.768;26.198;2022-11-11T15:07:00;49.87;;;34.80;;
9248;SDS011;4660;41.768;26.198;2022-11-11T15:12:14;51.43;;;35.60;;
9248;SDS011;4660;41.768;26.198;2022-11-11T15:23:20;48.63;;;35.93;;
9248;SDS011;4660;41.768;26.198;2022-11-11T15:34:01;50.60;;;36.33;;
9248;SDS011;4660;41.768;26.198;2022-11-11T15:36:51;44.07;;;35.80;;
9248;SDS011;4660;41.768;26.198;2022-11-11T15:39:23;44.40;;;35.33;;
9248;SDS011;4660;41.768;26.198;2022-11-11T15:41:57;48.57;;;34.77;;
9248;SDS011;4660;41.768;26.198;2022-11-11T15:44:28;44.30;;;33.43;;
9248;SDS011;4660;41.768;26.198;2022-11-11T15:46:56;50.40;;;34.77;;
9248;SDS011;4660;41.768;26.198;2022-11-11T15:49:40;43.40;;;33.07;;
9248;SDS011;4660;41.768;26.198;2022-11-11T15:54:53;46.43;;;34.17;;
9248;SDS011;4660;41.768;26.198;2022-11-11T15:59:49;47.00;;;34.03;;
9248;SDS011;4660;41.768;26.198;2022-11-11T16:02:19;44.67;;;34.00;;
9248;SDS011;4660;41.768;26.198;2022-11-11T16:04:52;49.40;;;34.33;;
9248;SDS011;4660;41.768;26.198;2022-11-11T16:07:26;51.97;;;37.17;;
9248;SDS011;4660;41.768;26.198;2022-11-11T16:10:15;62.37;;;36.27;;
9248;SDS011;4660;41.768;26.198;2022-11-11T16:12:45;51.87;;;36.60;;
9248;SDS011;4660;41.768;26.198;2022-11-11T16:17:50;51.57;;;37.97;;
9248;SDS011;4660;41.768;26.198;2022-11-11T16:20:19;55.10;;;36.43;;
9248;SDS011;4660;41.768;26.198;2022-11-11T16:22:52;46.23;;;35.90;;
9248;SDS011;4660;41.768;26.198;2022-11-11T16:25:22;54.50;;;39.00;;
9248;SDS011;4660;41.768;26.198;2022-11-11T16:27:48;52.93;;;38.53;;
9248;SDS011;4660;41.768;26.198;2022-11-11T16:30:33;51.20;;;36.00;;
9248;SDS011;4660;41.768;26.198;2022-11-11T16:33:00;50.83;;;35.40;;
9248;SDS011;4660;41.768;26.198;2022-11-11T16:35:36;43.87;;;33.20;;
9248;SDS011;4660;41.768;26.198;2022-11-11T16:38:04;40.50;;;32.00;;
9248;SDS011;4660;41.768;26.198;2022-11-11T16:45:52;38.23;;;27.80;;
9248;SDS011;4660;41.768;26.198;2022-11-11T16:51:07;30.23;;;21.43;;
9248;SDS011;4660;41.768;26.198;2022-11-11T16:53:39;28.93;;;20.67;;
9248;SDS011;4660;41.768;26.198;2022-11-11T16:56:13;28.90;;;19.83;;
9248;SDS011;4660;41.768;26.198;2022-11-11T16:58:56;27.37;;;18.87;;
9248;SDS011;4660;41.768;26.198;2022-11-11T17:01:25;24.37;;;18.37;;
9248;SDS011;4660;41.768;26.198;2022-11-11T17:03:52;22.97;;;17.40;;
9248;SDS011;4660;41.768;26.198;2022-11-11T17:06:19;22.57;;;17.50;;
9248;SDS011;4660;41.768;26.198;2022-11-11T17:11:57;18.63;;;16.10;;
9248;SDS011;4660;41.768;26.198;2022-11-11T17:14:23;16.70;;;13.50;;
9248;SDS011;4660;41.768;26.198;2022-11-11T17:16:51;20.83;;;14.07;;
9248;SDS011;4660;41.768;26.198;2022-11-11T17:19:17;15.80;;;11.47;;
9248;SDS011;4660;41.768;26.198;2022-11-11T17:21:46;12.13;;;10.23;;
9248;SDS011;4660;41.768;26.198;2022-11-11T17:24:12;17.40;;;10.50;;
9248;SDS011;4660;41.768;26.198;2022-11-11T17:26:39;10.97;;;8.30;;
9248;SDS011;4660;41.768;26.198;2022-11-11T17:29:06;11.10;;;8.53;;
9248;SDS011;4660;41.768;26.198;2022-11-11T17:31:34;12.97;;;9.40;;
9248;SDS011;4660;41.768;26.198;2022-11-11T17:34:07;11.83;;;8.10;;
9248;SDS011;4660;41.768;26.198;2022-11-11T17:36:33;11.33;;;7.00;;
9248;SDS011;4660;41.768;26.198;2022-11-11T17:38:59;8.83;;;5.53;;
9248;SDS011;4660;41.768;26.198;2022-11-11T17:41:24;281.30;;;23.30;;
9248;SDS011;4660;41.768;26.198;2022-11-11T17:43:51;10.97;;;8.53;;
9248;SDS011;4660;41.768;26.198;2022-11-11T17:46:17;12.10;;;7.10;;
9248;SDS011;4660;41.768;26.198;2022-11-11T17:48:42;10.40;;;7.03;;
9248;SDS011;4660;41.768;26.198;2022-11-11T17:51:08;12.30;;;8.27;;
9248;SDS011;4660;41.768;26.198;2022-11-11T17:53:34;10.27;;;8.07;;